sensor_id;sensor_type;location;lat;lon;timestamp;P1;durP1;ratioP1;P2;durP2;ratioP2
26536;SDS011;14204;51.262;5.488;2023-11-21T00:02:04;31.60;;;18.70;;
26536;SDS011;14204;51.262;5.488;2023-11-21T00:04:30;47.00;;;23.08;;
26536;SDS011;14204;51.262;5.488;2023-11-21T00:06:55;34.15;;;19.92;;
26536;SDS011;14204;51.262;5.488;2023-11-21T00:09:21;38.53;;;22.30;;
26536;SDS011;14204;51.262;5.488;2023-11-21T00:11:47;50.53;;;23.63;;
26536;SDS011;14204;51.262;5.488;2023-11-21T00:14:12;34.95;;;21.92;;
26536;SDS011;14204;51.262;5.488;2023-11-21T00:16:40;33.35;;;21.13;;
26536;SDS011;14204;51.262;5.488;2023-11-21T00:19:06;48.85;;;23.77;;
26536;SDS011;14204;51.262;5.488;2023-11-21T00:21:32;46.42;;;23.90;;
26536;SDS011;14204;51.262;5.488;2023-11-21T00:23:58;49.85;;;25.92;;
26536;SDS011;14204;51.262;5.488;2023-11-21T00:26:23;41.67;;;25.42;;
26536;SDS011;14204;51.262;5.488;2023-11-21T00:28:49;38.78;;;22.67;;
26536;SDS011;14204;51.262;5.488;2023-11-21T00:31:15;41.90;;;24.00;;
26536;SDS011;14204;51.262;5.488;2023-11-21T00:33:41;53.40;;;27.48;;
26536;SDS011;14204;51.262;5.488;2023-11-21T00:36:08;47.65;;;26.00;;
26536;SDS011;14204;51.262;5.488;2023-11-21T00:38:34;42.75;;;24.35;;
26536;SDS011;14204;51.262;5.488;2023-11-21T00:41:01;43.05;;;25.23;;
26536;SDS011;14204;51.262;5.488;2023-11-21T00:43:28;25.80;;;15.00;;
26536;SDS011;14204;51.262;5.488;2023-11-21T00:45:53;45.97;;;25.73;;
26536;SDS011;14204;51.262;5.488;2023-11-21T00:48:19;43.10;;;25.48;;
26536;SDS011;14204;51.262;5.488;2023-11-21T00:50:45;42.90;;;25.05;;
26536;SDS011;14204;51.262;5.488;2023-11-21T00:53:11;48.83;;;28.08;;
26536;SDS011;14204;51.262;5.488;2023-11-21T00:55:37;43.72;;;24.73;;
26536;SDS011;14204;51.262;5.488;2023-11-21T00:58:05;45.15;;;26.23;;
26536;SDS011;14204;51.262;5.488;2023-11-21T01:00:32;38.67;;;23.55;;
26536;SDS011;14204;51.262;5.488;2023-11-21T01:02:58;51.05;;;27.63;;
26536;SDS011;14204;51.262;5.488;2023-11-21T01:05:24;52.00;;;27.25;;
26536;SDS011;14204;51.262;5.488;2023-11-21T01:07:50;44.15;;;25.63;;
26536;SDS011;14204;51.262;5.488;2023-11-21T01:10:16;60.28;;;28.65;;
26536;SDS011;14204;51.262;5.488;2023-11-21T01:12:42;45.30;;;26.85;;
26536;SDS011;14204;51.262;5.488;2023-11-21T01:15:08;45.63;;;25.85;;
26536;SDS011;14204;51.262;5.488;2023-11-21T01:17:34;51.35;;;28.85;;
26536;SDS011;14204;51.262;5.488;2023-11-21T01:20:00;51.15;;;26.52;;
26536;SDS011;14204;51.262;5.488;2023-11-21T01:22:27;46.58;;;26.50;;
26536;SDS011;14204;51.262;5.488;2023-11-21T01:24:53;51.80;;;27.35;;
26536;SDS011;14204;51.262;5.488;2023-11-21T01:27:19;61.20;;;28.92;;
26536;SDS011;14204;51.262;5.488;2023-11-21T01:29:45;43.97;;;27.25;;
26536;SDS011;14204;51.262;5.488;2023-11-21T01:32:11;61.72;;;29.52;;
26536;SDS011;14204;51.262;5.488;2023-11-21T01:34:37;59.33;;;29.92;;
26536;SDS011;14204;51.262;5.488;2023-11-21T01:37:03;52.05;;;27.80;;
26536;SDS011;14204;51.262;5.488;2023-11-21T01:39:30;69.80;;;31.33;;
26536;SDS011;14204;51.262;5.488;2023-11-21T01:41:56;78.15;;;30.73;;
26536;SDS011;14204;51.262;5.488;2023-11-21T01:44:25;67.55;;;30.08;;
26536;SDS011;14204;51.262;5.488;2023-11-21T01:46:50;70.93;;;31.20;;
26536;SDS011;14204;51.262;5.488;2023-11-21T01:49:17;82.45;;;33.65;;
26536;SDS011;14204;51.262;5.488;2023-11-21T01:51:47;75.13;;;32.25;;
26536;SDS011;14204;51.262;5.488;2023-11-21T01:54:15;69.55;;;31.35;;
26536;SDS011;14204;51.262;5.488;2023-11-21T01:56:42;75.63;;;31.70;;
26536;SDS011;14204;51.262;5.488;2023-11-21T01:59:10;74.47;;;31.00;;
26536;SDS011;14204;51.262;5.488;2023-11-21T02:01:39;71.35;;;31.58;;
26536;SDS011;14204;51.262;5.488;2023-11-21T02:04:06;67.15;;;29.48;;
26536;SDS011;14204;51.262;5.488;2023-11-21T02:06:33;80.07;;;31.38;;
26536;SDS011;14204;51.262;5.488;2023-11-21T02:08:59;67.47;;;30.02;;
26536;SDS011;14204;51.262;5.488;2023-11-21T02:11:25;69.28;;;30.58;;
26536;SDS011;14204;51.262;5.488;2023-11-21T02:13:52;69.95;;;30.85;;
26536;SDS011;14204;51.262;5.488;2023-11-21T02:16:19;65.38;;;30.50;;
26536;SDS011;14204;51.262;5.488;2023-11-21T02:18:46;59.97;;;29.38;;
26536;SDS011;14204;51.262;5.488;2023-11-21T02:21:13;67.18;;;31.50;;
26536;SDS011;14204;51.262;5.488;2023-11-21T02:23:39;65.00;;;30.73;;
26536;SDS011;14204;51.262;5.488;2023-11-21T02:26:09;67.03;;;30.90;;
26536;SDS011;14204;51.262;5.488;2023-11-21T02:28:35;64.82;;;32.05;;
26536;SDS011;14204;51.262;5.488;2023-11-21T02:31:01;62.63;;;30.30;;
26536;SDS011;14204;51.262;5.488;2023-11-21T02:33:29;71.97;;;31.50;;
26536;SDS011;14204;51.262;5.488;2023-11-21T02:35:58;66.28;;;30.08;;
26536;SDS011;14204;51.262;5.488;2023-11-21T02:38:25;64.88;;;30.92;;
26536;SDS011;14204;51.262;5.488;2023-11-21T02:40:51;56.10;;;30.15;;
26536;SDS011;14204;51.262;5.488;2023-11-21T02:43:17;56.50;;;28.27;;
26536;SDS011;14204;51.262;5.488;2023-11-21T02:45:42;62.08;;;30.13;;
26536;SDS011;14204;51.262;5.488;2023-11-21T02:48:08;59.08;;;31.40;;
26536;SDS011;14204;51.262;5.488;2023-11-21T02:50:34;78.22;;;35.03;;
26536;SDS011;14204;51.262;5.488;2023-11-21T02:53:00;92.07;;;34.22;;
26536;SDS011;14204;51.262;5.488;2023-11-21T02:55:27;99.47;;;34.63;;
26536;SDS011;14204;51.262;5.488;2023-11-21T02:57:53;239.65;;;44.65;;
26536;SDS011;14204;51.262;5.488;2023-11-21T03:00:21;99.32;;;36.28;;
26536;SDS011;14204;51.262;5.488;2023-11-21T03:02:49;96.22;;;35.78;;
26536;SDS011;14204;51.262;5.488;2023-11-21T03:05:15;101.70;;;37.22;;
26536;SDS011;14204;51.262;5.488;2023-11-21T03:07:40;92.57;;;33.78;;
26536;SDS011;14204;51.262;5.488;2023-11-21T03:10:07;149.80;;;39.40;;
26536;SDS011;14204;51.262;5.488;2023-11-21T03:12:36;272.13;;;43.90;;
26536;SDS011;14204;51.262;5.488;2023-11-21T03:15:03;129.85;;;39.60;;
26536;SDS011;14204;51.262;5.488;2023-11-21T03:17:32;171.43;;;41.17;;
26536;SDS011;14204;51.262;5.488;2023-11-21T03:20:01;107.43;;;38.90;;
26536;SDS011;14204;51.262;5.488;2023-11-21T03:22:29;180.57;;;41.63;;
26536;SDS011;14204;51.262;5.488;2023-11-21T03:24:54;141.48;;;40.45;;
26536;SDS011;14204;51.262;5.488;2023-11-21T03:27:20;96.95;;;35.65;;
26536;SDS011;14204;51.262;5.488;2023-11-21T03:29:46;138.20;;;40.35;;
26536;SDS011;14204;51.262;5.488;2023-11-21T03:32:13;144.10;;;40.00;;
26536;SDS011;14204;51.262;5.488;2023-11-21T03:34:52;134.93;;;40.65;;
26536;SDS011;14204;51.262;5.488;2023-11-21T03:37:22;236.15;;;41.60;;
26536;SDS011;14204;51.262;5.488;2023-11-21T03:39:49;100.78;;;35.00;;
26536;SDS011;14204;51.262;5.488;2023-11-21T03:42:16;107.65;;;34.65;;
26536;SDS011;14204;51.262;5.488;2023-11-21T03:44:42;114.35;;;35.17;;
26536;SDS011;14204;51.262;5.488;2023-11-21T03:47:07;130.85;;;37.58;;
26536;SDS011;14204;51.262;5.488;2023-11-21T03:49:33;203.38;;;41.08;;
26536;SDS011;14204;51.262;5.488;2023-11-21T03:51:59;141.18;;;37.00;;
26536;SDS011;14204;51.262;5.488;2023-11-21T03:54:24;92.25;;;32.90;;
26536;SDS011;14204;51.262;5.488;2023-11-21T03:56:50;159.38;;;34.58;;
26536;SDS011;14204;51.262;5.488;2023-11-21T03:59:17;122.07;;;34.72;;
26536;SDS011;14204;51.262;5.488;2023-11-21T04:01:42;178.68;;;36.63;;
26536;SDS011;14204;51.262;5.488;2023-11-21T04:04:08;113.63;;;33.50;;
26536;SDS011;14204;51.262;5.488;2023-11-21T04:06:33;113.18;;;30.48;;
26536;SDS011;14204;51.262;5.488;2023-11-21T04:09:00;82.05;;;29.15;;
26536;SDS011;14204;51.262;5.488;2023-11-21T04:11:26;120.03;;;33.90;;
26536;SDS011;14204;51.262;5.488;2023-11-21T04:13:55;153.25;;;33.17;;
26536;SDS011;14204;51.262;5.488;2023-11-21T04:16:21;150.95;;;35.25;;
26536;SDS011;14204;51.262;5.488;2023-11-21T04:18:47;121.75;;;30.55;;
26536;SDS011;14204;51.262;5.488;2023-11-21T04:21:12;160.23;;;31.75;;
26536;SDS011;14204;51.262;5.488;2023-11-21T04:23:38;91.28;;;28.23;;
26536;SDS011;14204;51.262;5.488;2023-11-21T04:26:05;99.75;;;28.65;;
26536;SDS011;14204;51.262;5.488;2023-11-21T04:28:31;110.32;;;29.50;;
26536;SDS011;14204;51.262;5.488;2023-11-21T04:30:56;177.85;;;31.45;;
26536;SDS011;14204;51.262;5.488;2023-11-21T04:33:22;91.40;;;25.20;;
26536;SDS011;14204;51.262;5.488;2023-11-21T04:35:48;168.88;;;30.92;;
26536;SDS011;14204;51.262;5.488;2023-11-21T04:38:13;103.65;;;26.23;;
26536;SDS011;14204;51.262;5.488;2023-11-21T04:40:39;89.70;;;26.27;;
26536;SDS011;14204;51.262;5.488;2023-11-21T04:43:05;83.25;;;25.15;;
26536;SDS011;14204;51.262;5.488;2023-11-21T04:45:30;127.22;;;28.30;;
26536;SDS011;14204;51.262;5.488;2023-11-21T04:47:56;135.10;;;28.40;;
26536;SDS011;14204;51.262;5.488;2023-11-21T04:50:22;112.57;;;25.92;;
26536;SDS011;14204;51.262;5.488;2023-11-21T04:52:47;109.03;;;26.02;;
26536;SDS011;14204;51.262;5.488;2023-11-21T04:55:13;97.10;;;26.83;;
26536;SDS011;14204;51.262;5.488;2023-11-21T04:57:40;113.00;;;26.55;;
26536;SDS011;14204;51.262;5.488;2023-11-21T05:00:07;79.15;;;26.23;;
26536;SDS011;14204;51.262;5.488;2023-11-21T05:02:34;74.05;;;25.77;;
26536;SDS011;14204;51.262;5.488;2023-11-21T05:05:00;79.90;;;26.23;;
26536;SDS011;14204;51.262;5.488;2023-11-21T05:07:26;96.20;;;29.42;;
26536;SDS011;14204;51.262;5.488;2023-11-21T05:09:54;106.72;;;27.50;;
26536;SDS011;14204;51.262;5.488;2023-11-21T05:12:23;103.10;;;29.15;;
26536;SDS011;14204;51.262;5.488;2023-11-21T05:14:50;144.80;;;29.70;;
26536;SDS011;14204;51.262;5.488;2023-11-21T05:17:16;91.25;;;28.33;;
26536;SDS011;14204;51.262;5.488;2023-11-21T05:19:42;107.07;;;28.48;;
26536;SDS011;14204;51.262;5.488;2023-11-21T05:22:10;121.55;;;30.00;;
26536;SDS011;14204;51.262;5.488;2023-11-21T05:24:37;118.13;;;28.20;;
26536;SDS011;14204;51.262;5.488;2023-11-21T05:27:04;82.15;;;27.35;;
26536;SDS011;14204;51.262;5.488;2023-11-21T05:29:30;168.07;;;32.67;;
26536;SDS011;14204;51.262;5.488;2023-11-21T05:31:56;132.80;;;32.15;;
26536;SDS011;14204;51.262;5.488;2023-11-21T05:34:21;84.10;;;29.23;;
26536;SDS011;14204;51.262;5.488;2023-11-21T05:36:49;119.85;;;31.10;;
26536;SDS011;14204;51.262;5.488;2023-11-21T05:39:15;98.78;;;28.17;;
26536;SDS011;14204;51.262;5.488;2023-11-21T05:41:44;100.57;;;27.88;;
26536;SDS011;14204;51.262;5.488;2023-11-21T05:44:10;76.78;;;27.10;;
26536;SDS011;14204;51.262;5.488;2023-11-21T05:46:37;81.07;;;29.17;;
26536;SDS011;14204;51.262;5.488;2023-11-21T05:49:02;69.65;;;26.60;;
26536;SDS011;14204;51.262;5.488;2023-11-21T05:51:28;138.65;;;31.33;;
26536;SDS011;14204;51.262;5.488;2023-11-21T05:53:54;94.32;;;29.05;;
26536;SDS011;14204;51.262;5.488;2023-11-21T05:56:19;109.30;;;32.22;;
26536;SDS011;14204;51.262;5.488;2023-11-21T05:58:45;108.38;;;30.83;;
26536;SDS011;14204;51.262;5.488;2023-11-21T06:01:11;112.13;;;31.13;;
26536;SDS011;14204;51.262;5.488;2023-11-21T06:03:38;142.75;;;30.75;;
26536;SDS011;14204;51.262;5.488;2023-11-21T06:06:03;104.55;;;31.20;;
26536;SDS011;14204;51.262;5.488;2023-11-21T06:08:30;124.43;;;30.88;;
26536;SDS011;14204;51.262;5.488;2023-11-21T06:10:55;122.05;;;31.98;;
26536;SDS011;14204;51.262;5.488;2023-11-21T06:13:21;117.07;;;31.15;;
26536;SDS011;14204;51.262;5.488;2023-11-21T06:15:49;126.40;;;33.20;;
26536;SDS011;14204;51.262;5.488;2023-11-21T06:18:16;102.70;;;32.22;;
26536;SDS011;14204;51.262;5.488;2023-11-21T06:20:44;97.47;;;31.77;;
26536;SDS011;14204;51.262;5.488;2023-11-21T06:23:10;121.78;;;33.55;;
26536;SDS011;14204;51.262;5.488;2023-11-21T06:25:36;265.25;;;41.28;;
26536;SDS011;14204;51.262;5.488;2023-11-21T06:28:02;98.00;;;30.88;;
26536;SDS011;14204;51.262;5.488;2023-11-21T06:30:28;87.47;;;30.90;;
26536;SDS011;14204;51.262;5.488;2023-11-21T06:32:54;105.20;;;33.47;;
26536;SDS011;14204;51.262;5.488;2023-11-21T06:35:21;86.00;;;30.27;;
26536;SDS011;14204;51.262;5.488;2023-11-21T06:37:47;170.45;;;38.40;;
26536;SDS011;14204;51.262;5.488;2023-11-21T06:40:12;106.03;;;32.85;;
26536;SDS011;14204;51.262;5.488;2023-11-21T06:42:40;98.50;;;31.52;;
26536;SDS011;14204;51.262;5.488;2023-11-21T06:45:06;41.72;;;19.33;;
26536;SDS011;14204;51.262;5.488;2023-11-21T06:47:33;97.68;;;32.25;;
26536;SDS011;14204;51.262;5.488;2023-11-21T06:49:59;128.43;;;36.88;;
26536;SDS011;14204;51.262;5.488;2023-11-21T06:52:25;96.07;;;31.90;;
26536;SDS011;14204;51.262;5.488;2023-11-21T06:54:51;91.07;;;31.88;;
26536;SDS011;14204;51.262;5.488;2023-11-21T06:57:17;114.00;;;34.55;;
26536;SDS011;14204;51.262;5.488;2023-11-21T06:59:43;95.80;;;33.55;;
26536;SDS011;14204;51.262;5.488;2023-11-21T07:02:09;98.90;;;33.22;;
26536;SDS011;14204;51.262;5.488;2023-11-21T07:04:37;105.43;;;34.20;;
26536;SDS011;14204;51.262;5.488;2023-11-21T07:07:03;106.75;;;33.20;;
26536;SDS011;14204;51.262;5.488;2023-11-21T07:09:31;105.13;;;33.42;;
26536;SDS011;14204;51.262;5.488;2023-11-21T07:11:57;93.78;;;32.33;;
26536;SDS011;14204;51.262;5.488;2023-11-21T07:14:23;116.55;;;34.80;;
26536;SDS011;14204;51.262;5.488;2023-11-21T07:16:49;119.15;;;34.53;;
26536;SDS011;14204;51.262;5.488;2023-11-21T07:19:14;146.73;;;39.92;;
26536;SDS011;14204;51.262;5.488;2023-11-21T07:21:41;189.63;;;39.45;;
26536;SDS011;14204;51.262;5.488;2023-11-21T07:24:07;182.40;;;39.67;;
26536;SDS011;14204;51.262;5.488;2023-11-21T07:26:35;153.60;;;38.92;;
26536;SDS011;14204;51.262;5.488;2023-11-21T07:29:01;129.93;;;36.97;;
26536;SDS011;14204;51.262;5.488;2023-11-21T07:31:28;110.35;;;34.45;;
26536;SDS011;14204;51.262;5.488;2023-11-21T07:33:54;149.48;;;36.92;;
26536;SDS011;14204;51.262;5.488;2023-11-21T07:36:23;174.82;;;39.65;;
26536;SDS011;14204;51.262;5.488;2023-11-21T07:38:49;113.40;;;35.58;;
26536;SDS011;14204;51.262;5.488;2023-11-21T07:41:15;174.32;;;38.90;;
26536;SDS011;14204;51.262;5.488;2023-11-21T07:43:42;122.53;;;34.63;;
26536;SDS011;14204;51.262;5.488;2023-11-21T07:46:09;137.88;;;36.13;;
26536;SDS011;14204;51.262;5.488;2023-11-21T07:48:35;123.22;;;35.22;;
26536;SDS011;14204;51.262;5.488;2023-11-21T07:51:01;174.75;;;37.65;;
26536;SDS011;14204;51.262;5.488;2023-11-21T07:53:30;111.53;;;32.47;;
26536;SDS011;14204;51.262;5.488;2023-11-21T07:55:56;122.00;;;34.03;;
26536;SDS011;14204;51.262;5.488;2023-11-21T07:58:23;145.70;;;36.40;;
26536;SDS011;14204;51.262;5.488;2023-11-21T08:00:49;179.68;;;36.72;;
26536;SDS011;14204;51.262;5.488;2023-11-21T08:03:15;154.07;;;37.38;;
26536;SDS011;14204;51.262;5.488;2023-11-21T08:05:41;136.98;;;36.33;;
26536;SDS011;14204;51.262;5.488;2023-11-21T08:08:07;159.27;;;38.00;;
26536;SDS011;14204;51.262;5.488;2023-11-21T08:10:33;174.63;;;41.17;;
26536;SDS011;14204;51.262;5.488;2023-11-21T08:13:01;177.68;;;41.58;;
26536;SDS011;14204;51.262;5.488;2023-11-21T08:15:27;253.35;;;45.08;;
26536;SDS011;14204;51.262;5.488;2023-11-21T08:17:53;192.23;;;40.13;;
26536;SDS011;14204;51.262;5.488;2023-11-21T08:20:18;181.35;;;39.97;;
26536;SDS011;14204;51.262;5.488;2023-11-21T08:22:44;180.40;;;41.08;;
26536;SDS011;14204;51.262;5.488;2023-11-21T08:25:12;264.95;;;44.63;;
26536;SDS011;14204;51.262;5.488;2023-11-21T08:27:38;191.23;;;42.42;;
26536;SDS011;14204;51.262;5.488;2023-11-21T08:30:04;209.88;;;44.88;;
26536;SDS011;14204;51.262;5.488;2023-11-21T08:32:30;191.02;;;40.72;;
26536;SDS011;14204;51.262;5.488;2023-11-21T08:34:58;216.05;;;44.58;;
26536;SDS011;14204;51.262;5.488;2023-11-21T08:37:27;191.02;;;43.53;;
26536;SDS011;14204;51.262;5.488;2023-11-21T08:39:55;191.38;;;45.05;;
26536;SDS011;14204;51.262;5.488;2023-11-21T08:42:24;185.45;;;42.45;;
26536;SDS011;14204;51.262;5.488;2023-11-21T08:44:50;173.90;;;42.22;;
26536;SDS011;14204;51.262;5.488;2023-11-21T08:47:16;213.50;;;46.83;;
26536;SDS011;14204;51.262;5.488;2023-11-21T08:49:41;190.05;;;46.88;;
26536;SDS011;14204;51.262;5.488;2023-11-21T08:52:07;199.25;;;44.63;;
26536;SDS011;14204;51.262;5.488;2023-11-21T08:54:33;211.80;;;48.15;;
26536;SDS011;14204;51.262;5.488;2023-11-21T08:56:59;239.23;;;52.70;;
26536;SDS011;14204;51.262;5.488;2023-11-21T08:59:25;201.05;;;45.33;;
26536;SDS011;14204;51.262;5.488;2023-11-21T09:01:51;221.70;;;49.70;;
26536;SDS011;14204;51.262;5.488;2023-11-21T09:04:17;249.05;;;52.45;;
26536;SDS011;14204;51.262;5.488;2023-11-21T09:06:42;208.18;;;47.47;;
26536;SDS011;14204;51.262;5.488;2023-11-21T09:09:08;236.88;;;52.53;;
26536;SDS011;14204;51.262;5.488;2023-11-21T09:11:35;243.15;;;54.22;;
26536;SDS011;14204;51.262;5.488;2023-11-21T09:14:01;244.35;;;54.05;;
26536;SDS011;14204;51.262;5.488;2023-11-21T09:16:28;293.77;;;56.15;;
26536;SDS011;14204;51.262;5.488;2023-11-21T09:18:54;243.05;;;52.70;;
26536;SDS011;14204;51.262;5.488;2023-11-21T09:21:20;236.88;;;52.10;;
26536;SDS011;14204;51.262;5.488;2023-11-21T09:23:46;202.63;;;48.47;;
26536;SDS011;14204;51.262;5.488;2023-11-21T09:26:13;256.63;;;54.60;;
26536;SDS011;14204;51.262;5.488;2023-11-21T09:28:41;214.75;;;52.38;;
26536;SDS011;14204;51.262;5.488;2023-11-21T09:31:11;204.20;;;50.50;;
26536;SDS011;14204;51.262;5.488;2023-11-21T09:33:37;251.88;;;54.83;;
26536;SDS011;14204;51.262;5.488;2023-11-21T09:36:03;222.15;;;53.38;;
26536;SDS011;14204;51.262;5.488;2023-11-21T09:38:30;238.40;;;56.40;;
26536;SDS011;14204;51.262;5.488;2023-11-21T09:40:56;241.57;;;55.25;;
26536;SDS011;14204;51.262;5.488;2023-11-21T09:43:23;207.02;;;51.13;;
26536;SDS011;14204;51.262;5.488;2023-11-21T09:46:02;218.02;;;53.75;;
26536;SDS011;14204;51.262;5.488;2023-11-21T09:48:31;235.73;;;53.58;;
26536;SDS011;14204;51.262;5.488;2023-11-21T09:50:59;247.52;;;59.00;;
26536;SDS011;14204;51.262;5.488;2023-11-21T09:53:26;222.68;;;54.38;;
26536;SDS011;14204;51.262;5.488;2023-11-21T09:55:55;205.05;;;53.00;;
26536;SDS011;14204;51.262;5.488;2023-11-21T09:58:21;176.10;;;48.53;;
26536;SDS011;14204;51.262;5.488;2023-11-21T10:00:49;191.65;;;52.13;;
26536;SDS011;14204;51.262;5.488;2023-11-21T10:03:17;194.98;;;51.05;;
26536;SDS011;14204;51.262;5.488;2023-11-21T10:05:43;185.35;;;50.65;;
26536;SDS011;14204;51.262;5.488;2023-11-21T10:08:12;170.35;;;49.53;;
26536;SDS011;14204;51.262;5.488;2023-11-21T10:10:43;169.93;;;48.72;;
26536;SDS011;14204;51.262;5.488;2023-11-21T10:13:11;178.70;;;50.67;;
26536;SDS011;14204;51.262;5.488;2023-11-21T10:15:41;270.58;;;57.65;;
26536;SDS011;14204;51.262;5.488;2023-11-21T10:18:13;167.50;;;49.63;;
26536;SDS011;14204;51.262;5.488;2023-11-21T10:20:40;192.90;;;50.10;;
26536;SDS011;14204;51.262;5.488;2023-11-21T10:23:06;186.20;;;49.97;;
26536;SDS011;14204;51.262;5.488;2023-11-21T10:25:36;169.55;;;49.67;;
26536;SDS011;14204;51.262;5.488;2023-11-21T10:28:02;152.10;;;48.13;;
26536;SDS011;14204;51.262;5.488;2023-11-21T10:30:32;176.50;;;50.13;;
26536;SDS011;14204;51.262;5.488;2023-11-21T10:33:01;164.25;;;48.92;;
26536;SDS011;14204;51.262;5.488;2023-11-21T10:35:43;149.00;;;48.08;;
26536;SDS011;14204;51.262;5.488;2023-11-21T10:38:18;176.52;;;54.42;;
26536;SDS011;14204;51.262;5.488;2023-11-21T10:40:46;154.75;;;49.03;;
26536;SDS011;14204;51.262;5.488;2023-11-21T10:43:13;196.23;;;57.20;;
26536;SDS011;14204;51.262;5.488;2023-11-21T10:45:40;164.48;;;51.75;;
26536;SDS011;14204;51.262;5.488;2023-11-21T10:48:10;174.88;;;51.88;;
26536;SDS011;14204;51.262;5.488;2023-11-21T10:50:42;124.55;;;44.72;;
26536;SDS011;14204;51.262;5.488;2023-11-21T10:53:10;119.95;;;41.95;;
26536;SDS011;14204;51.262;5.488;2023-11-21T10:55:39;155.63;;;49.33;;
26536;SDS011;14204;51.262;5.488;2023-11-21T10:58:04;118.72;;;43.22;;
26536;SDS011;14204;51.262;5.488;2023-11-21T11:00:34;141.25;;;44.97;;
26536;SDS011;14204;51.262;5.488;2023-11-21T11:02:59;123.15;;;45.70;;
26536;SDS011;14204;51.262;5.488;2023-11-21T11:05:27;132.73;;;44.85;;
26536;SDS011;14204;51.262;5.488;2023-11-21T11:08:05;142.20;;;46.72;;
26536;SDS011;14204;51.262;5.488;2023-11-21T11:10:32;114.25;;;42.67;;
26536;SDS011;14204;51.262;5.488;2023-11-21T11:12:59;125.22;;;44.90;;
26536;SDS011;14204;51.262;5.488;2023-11-21T11:15:25;116.00;;;43.22;;
26536;SDS011;14204;51.262;5.488;2023-11-21T11:17:52;130.50;;;47.17;;
26536;SDS011;14204;51.262;5.488;2023-11-21T11:20:30;129.48;;;46.85;;
26536;SDS011;14204;51.262;5.488;2023-11-21T11:23:11;117.15;;;44.38;;
26536;SDS011;14204;51.262;5.488;2023-11-21T11:34:29;127.78;;;43.47;;
26536;SDS011;14204;51.262;5.488;2023-11-21T11:37:07;110.78;;;40.08;;
26536;SDS011;14204;51.262;5.488;2023-11-21T11:39:40;122.30;;;41.67;;
26536;SDS011;14204;51.262;5.488;2023-11-21T11:42:10;135.65;;;42.80;;
26536;SDS011;14204;51.262;5.488;2023-11-21T11:49:57;110.65;;;40.35;;
26536;SDS011;14204;51.262;5.488;2023-11-21T11:55:01;105.50;;;37.83;;
26536;SDS011;14204;51.262;5.488;2023-11-21T11:57:31;106.38;;;37.55;;
26536;SDS011;14204;51.262;5.488;2023-11-21T12:00:21;97.28;;;37.00;;
26536;SDS011;14204;51.262;5.488;2023-11-21T12:02:58;94.90;;;36.15;;
26536;SDS011;14204;51.262;5.488;2023-11-21T12:05:31;103.03;;;36.45;;
26536;SDS011;14204;51.262;5.488;2023-11-21T12:08:01;103.32;;;36.13;;
26536;SDS011;14204;51.262;5.488;2023-11-21T12:10:35;96.40;;;38.10;;
26536;SDS011;14204;51.262;5.488;2023-11-21T12:13:03;88.03;;;33.28;;
26536;SDS011;14204;51.262;5.488;2023-11-21T12:15:30;82.88;;;33.40;;
26536;SDS011;14204;51.262;5.488;2023-11-21T12:17:57;90.07;;;35.80;;
26536;SDS011;14204;51.262;5.488;2023-11-21T12:20:26;88.63;;;34.33;;
26536;SDS011;14204;51.262;5.488;2023-11-21T12:22:53;100.68;;;35.78;;
26536;SDS011;14204;51.262;5.488;2023-11-21T12:25:26;102.00;;;36.47;;
26536;SDS011;14204;51.262;5.488;2023-11-21T12:27:57;119.90;;;41.15;;
26536;SDS011;14204;51.262;5.488;2023-11-21T12:30:26;107.30;;;37.67;;
26536;SDS011;14204;51.262;5.488;2023-11-21T12:32:55;92.88;;;37.13;;
26536;SDS011;14204;51.262;5.488;2023-11-21T12:35:27;84.05;;;35.55;;
26536;SDS011;14204;51.262;5.488;2023-11-21T12:37:59;74.53;;;32.55;;
26536;SDS011;14204;51.262;5.488;2023-11-21T12:40:27;86.07;;;37.15;;
26536;SDS011;14204;51.262;5.488;2023-11-21T12:42:55;111.72;;;38.13;;
26536;SDS011;14204;51.262;5.488;2023-11-21T12:45:26;81.43;;;33.70;;
26536;SDS011;14204;51.262;5.488;2023-11-21T12:47:59;73.15;;;32.88;;
26536;SDS011;14204;51.262;5.488;2023-11-21T12:50:28;84.65;;;36.38;;
26536;SDS011;14204;51.262;5.488;2023-11-21T12:53:01;76.53;;;33.30;;
26536;SDS011;14204;51.262;5.488;2023-11-21T12:55:33;68.10;;;32.40;;
26536;SDS011;14204;51.262;5.488;2023-11-21T12:58:02;70.60;;;34.00;;
26536;SDS011;14204;51.262;5.488;2023-11-21T13:00:35;69.50;;;32.15;;
26536;SDS011;14204;51.262;5.488;2023-11-21T13:03:03;74.47;;;33.17;;
26536;SDS011;14204;51.262;5.488;2023-11-21T13:05:30;62.33;;;30.13;;
26536;SDS011;14204;51.262;5.488;2023-11-21T13:08:15;70.63;;;32.40;;
26536;SDS011;14204;51.262;5.488;2023-11-21T13:10:45;84.25;;;35.55;;
26536;SDS011;14204;51.262;5.488;2023-11-21T13:13:13;75.63;;;32.10;;
26536;SDS011;14204;51.262;5.488;2023-11-21T13:15:49;78.03;;;31.83;;
26536;SDS011;14204;51.262;5.488;2023-11-21T13:18:25;71.40;;;29.20;;
26536;SDS011;14204;51.262;5.488;2023-11-21T13:20:55;55.15;;;26.13;;
26536;SDS011;14204;51.262;5.488;2023-11-21T13:23:22;53.85;;;25.08;;
26536;SDS011;14204;51.262;5.488;2023-11-21T13:25:48;50.95;;;25.10;;
26536;SDS011;14204;51.262;5.488;2023-11-21T13:28:15;55.30;;;27.15;;
26536;SDS011;14204;51.262;5.488;2023-11-21T13:30:43;50.10;;;24.38;;
26536;SDS011;14204;51.262;5.488;2023-11-21T13:33:09;46.35;;;24.40;;
26536;SDS011;14204;51.262;5.488;2023-11-21T13:35:38;49.58;;;22.67;;
26536;SDS011;14204;51.262;5.488;2023-11-21T13:38:12;46.05;;;22.13;;
26536;SDS011;14204;51.262;5.488;2023-11-21T13:40:42;52.53;;;24.13;;
26536;SDS011;14204;51.262;5.488;2023-11-21T13:43:14;51.33;;;23.70;;
26536;SDS011;14204;51.262;5.488;2023-11-21T13:45:41;55.85;;;24.90;;
26536;SDS011;14204;51.262;5.488;2023-11-21T13:48:08;51.83;;;25.95;;
26536;SDS011;14204;51.262;5.488;2023-11-21T13:50:37;63.80;;;27.02;;
26536;SDS011;14204;51.262;5.488;2023-11-21T13:53:04;52.13;;;25.10;;
26536;SDS011;14204;51.262;5.488;2023-11-21T13:55:45;75.65;;;30.45;;
26536;SDS011;14204;51.262;5.488;2023-11-21T13:58:11;62.28;;;31.40;;
26536;SDS011;14204;51.262;5.488;2023-11-21T14:00:43;66.70;;;31.15;;
26536;SDS011;14204;51.262;5.488;2023-11-21T14:03:17;68.40;;;29.98;;
26536;SDS011;14204;51.262;5.488;2023-11-21T14:05:46;60.90;;;28.38;;
26536;SDS011;14204;51.262;5.488;2023-11-21T14:08:16;70.38;;;29.48;;
26536;SDS011;14204;51.262;5.488;2023-11-21T14:10:46;63.00;;;30.35;;
26536;SDS011;14204;51.262;5.488;2023-11-21T14:13:20;71.68;;;31.95;;
26536;SDS011;14204;51.262;5.488;2023-11-21T14:15:48;72.07;;;31.75;;
26536;SDS011;14204;51.262;5.488;2023-11-21T14:18:17;76.72;;;33.83;;
26536;SDS011;14204;51.262;5.488;2023-11-21T14:20:51;71.35;;;33.08;;
26536;SDS011;14204;51.262;5.488;2023-11-21T14:23:17;77.32;;;32.50;;
26536;SDS011;14204;51.262;5.488;2023-11-21T14:25:43;79.00;;;33.13;;
26536;SDS011;14204;51.262;5.488;2023-11-21T14:28:09;74.95;;;35.00;;
26536;SDS011;14204;51.262;5.488;2023-11-21T14:30:37;78.30;;;32.72;;
26536;SDS011;14204;51.262;5.488;2023-11-21T14:33:04;78.03;;;35.72;;
26536;SDS011;14204;51.262;5.488;2023-11-21T14:35:31;78.35;;;33.95;;